sensor_id;sensor_type;location;lat;lon;timestamp;P1;durP1;ratioP1;P2;durP2;ratioP2
4971;SDS011;2501;51.214;6.768;2023-04-25T00:00:36;19.00;;;6.35;;
4971;SDS011;2501;51.214;6.768;2023-04-25T00:03:04;18.25;;;5.57;;
4971;SDS011;2501;51.214;6.768;2023-04-25T00:05:34;21.77;;;5.65;;
4971;SDS011;2501;51.214;6.768;2023-04-25T00:08:05;18.13;;;5.90;;
4971;SDS011;2501;51.214;6.768;2023-04-25T00:10:34;27.05;;;5.80;;
4971;SDS011;2501;51.214;6.768;2023-04-25T00:13:02;12.53;;;5.23;;
4971;SDS011;2501;51.214;6.768;2023-04-25T00:15:31;18.75;;;5.40;;
4971;SDS011;2501;51.214;6.768;2023-04-25T00:18:01;13.48;;;5.57;;
4971;SDS011;2501;51.214;6.768;2023-04-25T00:20:33;17.40;;;5.38;;
4971;SDS011;2501;51.214;6.768;2023-04-25T00:23:05;22.90;;;5.50;;
4971;SDS011;2501;51.214;6.768;2023-04-25T00:25:34;14.87;;;5.50;;
4971;SDS011;2501;51.214;6.768;2023-04-25T00:28:02;16.85;;;5.47;;
4971;SDS011;2501;51.214;6.768;2023-04-25T00:30:31;15.68;;;5.28;;
4971;SDS011;2501;51.214;6.768;2023-04-25T00:32:59;22.05;;;5.30;;
4971;SDS011;2501;51.214;6.768;2023-04-25T00:35:28;14.88;;;5.40;;
4971;SDS011;2501;51.214;6.768;2023-04-25T00:37:56;18.00;;;5.38;;
4971;SDS011;2501;51.214;6.768;2023-04-25T00:40:27;13.10;;;4.90;;
4971;SDS011;2501;51.214;6.768;2023-04-25T00:42:55;14.43;;;5.15;;
4971;SDS011;2501;51.214;6.768;2023-04-25T00:45:25;15.70;;;4.88;;
4971;SDS011;2501;51.214;6.768;2023-04-25T00:47:56;11.07;;;5.00;;
4971;SDS011;2501;51.214;6.768;2023-04-25T00:50:24;18.90;;;5.28;;
4971;SDS011;2501;51.214;6.768;2023-04-25T00:52:53;18.40;;;4.72;;
4971;SDS011;2501;51.214;6.768;2023-04-25T00:55:22;14.15;;;4.90;;
4971;SDS011;2501;51.214;6.768;2023-04-25T00:57:53;16.73;;;5.53;;
4971;SDS011;2501;51.214;6.768;2023-04-25T01:00:21;15.73;;;4.40;;
4971;SDS011;2501;51.214;6.768;2023-04-25T01:02:50;13.02;;;4.90;;
4971;SDS011;2501;51.214;6.768;2023-04-25T01:05:19;15.73;;;4.90;;
4971;SDS011;2501;51.214;6.768;2023-04-25T01:07:47;20.70;;;6.00;;
4971;SDS011;2501;51.214;6.768;2023-04-25T01:10:16;15.90;;;6.20;;
4971;SDS011;2501;51.214;6.768;2023-04-25T01:12:44;15.90;;;4.93;;
4971;SDS011;2501;51.214;6.768;2023-04-25T01:15:15;15.38;;;4.47;;
4971;SDS011;2501;51.214;6.768;2023-04-25T01:17:44;13.45;;;4.40;;
4971;SDS011;2501;51.214;6.768;2023-04-25T01:20:14;15.73;;;5.45;;
4971;SDS011;2501;51.214;6.768;2023-04-25T01:22:46;17.63;;;5.35;;
4971;SDS011;2501;51.214;6.768;2023-04-25T01:25:15;14.07;;;4.90;;
4971;SDS011;2501;51.214;6.768;2023-04-25T01:27:43;14.43;;;5.03;;
4971;SDS011;2501;51.214;6.768;2023-04-25T01:30:12;14.45;;;4.80;;
4971;SDS011;2501;51.214;6.768;2023-04-25T01:32:41;11.85;;;4.80;;
4971;SDS011;2501;51.214;6.768;2023-04-25T01:35:11;12.93;;;4.75;;
4971;SDS011;2501;51.214;6.768;2023-04-25T01:37:40;14.95;;;5.10;;
4971;SDS011;2501;51.214;6.768;2023-04-25T01:40:12;11.02;;;4.95;;
4971;SDS011;2501;51.214;6.768;2023-04-25T01:42:41;16.42;;;5.05;;
4971;SDS011;2501;51.214;6.768;2023-04-25T01:45:11;21.43;;;5.70;;
4971;SDS011;2501;51.214;6.768;2023-04-25T01:47:40;14.85;;;4.90;;
4971;SDS011;2501;51.214;6.768;2023-04-25T01:50:12;15.50;;;5.00;;
4971;SDS011;2501;51.214;6.768;2023-04-25T01:52:40;10.40;;;4.78;;
4971;SDS011;2501;51.214;6.768;2023-04-25T01:55:09;14.00;;;5.00;;
4971;SDS011;2501;51.214;6.768;2023-04-25T01:57:40;12.73;;;4.70;;
4971;SDS011;2501;51.214;6.768;2023-04-25T02:00:09;12.85;;;4.97;;
4971;SDS011;2501;51.214;6.768;2023-04-25T02:02:39;13.73;;;4.97;;
4971;SDS011;2501;51.214;6.768;2023-04-25T02:05:07;10.88;;;5.68;;
4971;SDS011;2501;51.214;6.768;2023-04-25T02:07:36;14.63;;;5.05;;
4971;SDS011;2501;51.214;6.768;2023-04-25T02:10:05;9.70;;;4.53;;
4971;SDS011;2501;51.214;6.768;2023-04-25T02:12:37;16.07;;;5.27;;
4971;SDS011;2501;51.214;6.768;2023-04-25T02:15:06;13.82;;;4.80;;
4971;SDS011;2501;51.214;6.768;2023-04-25T02:17:35;11.07;;;4.50;;
4971;SDS011;2501;51.214;6.768;2023-04-25T02:20:05;12.27;;;4.65;;
4971;SDS011;2501;51.214;6.768;2023-04-25T02:22:35;11.87;;;4.60;;
4971;SDS011;2501;51.214;6.768;2023-04-25T02:25:04;6.22;;;3.80;;
4971;SDS011;2501;51.214;6.768;2023-04-25T02:27:33;11.65;;;4.55;;
4971;SDS011;2501;51.214;6.768;2023-04-25T02:30:04;10.50;;;3.72;;
4971;SDS011;2501;51.214;6.768;2023-04-25T02:32:34;7.78;;;3.28;;
4971;SDS011;2501;51.214;6.768;2023-04-25T02:35:03;5.80;;;3.00;;
4971;SDS011;2501;51.214;6.768;2023-04-25T02:37:32;7.53;;;3.37;;
4971;SDS011;2501;51.214;6.768;2023-04-25T02:40:02;9.88;;;3.70;;
4971;SDS011;2501;51.214;6.768;2023-04-25T02:42:31;8.98;;;4.38;;
4971;SDS011;2501;51.214;6.768;2023-04-25T02:45:00;10.45;;;4.45;;
4971;SDS011;2501;51.214;6.768;2023-04-25T02:47:31;13.48;;;4.45;;
4971;SDS011;2501;51.214;6.768;2023-04-25T02:49:59;16.10;;;4.50;;
4971;SDS011;2501;51.214;6.768;2023-04-25T02:52:28;11.15;;;4.70;;
4971;SDS011;2501;51.214;6.768;2023-04-25T02:54:56;13.98;;;5.40;;
4971;SDS011;2501;51.214;6.768;2023-04-25T02:57:25;11.13;;;5.07;;
4971;SDS011;2501;51.214;6.768;2023-04-25T02:59:53;11.88;;;4.30;;
4971;SDS011;2501;51.214;6.768;2023-04-25T03:02:22;11.00;;;4.72;;
4971;SDS011;2501;51.214;6.768;2023-04-25T03:04:53;12.07;;;4.60;;
4971;SDS011;2501;51.214;6.768;2023-04-25T03:07:21;9.38;;;4.70;;
4971;SDS011;2501;51.214;6.768;2023-04-25T03:09:50;10.32;;;5.00;;
4971;SDS011;2501;51.214;6.768;2023-04-25T03:12:18;10.65;;;5.10;;
4971;SDS011;2501;51.214;6.768;2023-04-25T03:14:47;14.77;;;4.53;;
4971;SDS011;2501;51.214;6.768;2023-04-25T03:17:15;11.60;;;4.93;;
4971;SDS011;2501;51.214;6.768;2023-04-25T03:19:44;11.00;;;4.97;;
4971;SDS011;2501;51.214;6.768;2023-04-25T03:22:15;12.75;;;5.07;;
4971;SDS011;2501;51.214;6.768;2023-04-25T03:24:43;13.23;;;5.00;;
4971;SDS011;2501;51.214;6.768;2023-04-25T03:27:12;15.48;;;5.75;;
4971;SDS011;2501;51.214;6.768;2023-04-25T03:29:40;14.07;;;5.47;;
4971;SDS011;2501;51.214;6.768;2023-04-25T03:32:09;15.43;;;5.30;;
4971;SDS011;2501;51.214;6.768;2023-04-25T03:34:37;17.45;;;5.70;;
4971;SDS011;2501;51.214;6.768;2023-04-25T03:37:06;17.02;;;5.60;;
4971;SDS011;2501;51.214;6.768;2023-04-25T03:39:37;16.27;;;5.72;;
4971;SDS011;2501;51.214;6.768;2023-04-25T03:42:05;17.00;;;6.22;;
4971;SDS011;2501;51.214;6.768;2023-04-25T03:44:34;21.60;;;6.00;;
4971;SDS011;2501;51.214;6.768;2023-04-25T03:47:02;15.23;;;5.88;;
4971;SDS011;2501;51.214;6.768;2023-04-25T03:49:32;15.45;;;6.00;;
4971;SDS011;2501;51.214;6.768;2023-04-25T03:52:02;17.30;;;5.97;;
4971;SDS011;2501;51.214;6.768;2023-04-25T03:54:30;14.20;;;6.10;;
4971;SDS011;2501;51.214;6.768;2023-04-25T03:57:01;17.88;;;6.05;;
4971;SDS011;2501;51.214;6.768;2023-04-25T03:59:30;18.30;;;5.53;;
4971;SDS011;2501;51.214;6.768;2023-04-25T04:01:58;21.77;;;5.97;;
4971;SDS011;2501;51.214;6.768;2023-04-25T04:04:27;16.63;;;6.50;;
4971;SDS011;2501;51.214;6.768;2023-04-25T04:06:55;15.27;;;6.65;;
4971;SDS011;2501;51.214;6.768;2023-04-25T04:09:24;20.23;;;5.85;;
4971;SDS011;2501;51.214;6.768;2023-04-25T04:11:53;14.40;;;5.70;;
4971;SDS011;2501;51.214;6.768;2023-04-25T04:14:24;14.32;;;6.00;;
4971;SDS011;2501;51.214;6.768;2023-04-25T04:16:52;16.80;;;5.43;;
4971;SDS011;2501;51.214;6.768;2023-04-25T04:19:21;19.80;;;5.70;;
4971;SDS011;2501;51.214;6.768;2023-04-25T04:21:49;19.05;;;5.90;;
4971;SDS011;2501;51.214;6.768;2023-04-25T04:24:18;15.73;;;5.90;;
4971;SDS011;2501;51.214;6.768;2023-04-25T04:26:46;15.73;;;5.25;;
4971;SDS011;2501;51.214;6.768;2023-04-25T04:29:15;15.13;;;5.50;;
4971;SDS011;2501;51.214;6.768;2023-04-25T04:31:49;19.60;;;6.57;;
4971;SDS011;2501;51.214;6.768;2023-04-25T04:34:19;21.52;;;6.07;;
4971;SDS011;2501;51.214;6.768;2023-04-25T04:36:49;19.77;;;5.83;;
4971;SDS011;2501;51.214;6.768;2023-04-25T04:39:17;24.02;;;6.40;;
4971;SDS011;2501;51.214;6.768;2023-04-25T04:41:46;19.05;;;5.90;;
4971;SDS011;2501;51.214;6.768;2023-04-25T04:44:16;24.77;;;6.13;;
4971;SDS011;2501;51.214;6.768;2023-04-25T04:46:44;23.00;;;6.30;;
4971;SDS011;2501;51.214;6.768;2023-04-25T04:49:16;19.45;;;7.38;;
4971;SDS011;2501;51.214;6.768;2023-04-25T04:51:44;19.77;;;5.40;;
4971;SDS011;2501;51.214;6.768;2023-04-25T04:54:14;20.63;;;6.07;;
4971;SDS011;2501;51.214;6.768;2023-04-25T04:56:43;16.43;;;5.10;;
4971;SDS011;2501;51.214;6.768;2023-04-25T04:59:11;23.83;;;5.63;;
4971;SDS011;2501;51.214;6.768;2023-04-25T05:01:40;22.15;;;5.88;;
4971;SDS011;2501;51.214;6.768;2023-04-25T05:04:08;17.05;;;5.90;;
4971;SDS011;2501;51.214;6.768;2023-04-25T05:06:39;19.25;;;5.90;;
4971;SDS011;2501;51.214;6.768;2023-04-25T05:09:09;26.67;;;7.50;;
4971;SDS011;2501;51.214;6.768;2023-04-25T05:11:37;15.15;;;6.05;;
4971;SDS011;2501;51.214;6.768;2023-04-25T05:14:06;19.85;;;6.10;;
4971;SDS011;2501;51.214;6.768;2023-04-25T05:16:34;20.33;;;6.72;;
4971;SDS011;2501;51.214;6.768;2023-04-25T05:19:03;17.40;;;5.90;;
4971;SDS011;2501;51.214;6.768;2023-04-25T05:21:31;21.33;;;7.07;;
4971;SDS011;2501;51.214;6.768;2023-04-25T05:24:02;27.95;;;6.15;;
4971;SDS011;2501;51.214;6.768;2023-04-25T05:26:31;20.10;;;6.55;;
4971;SDS011;2501;51.214;6.768;2023-04-25T05:29:00;13.10;;;6.40;;
4971;SDS011;2501;51.214;6.768;2023-04-25T05:31:28;19.77;;;6.40;;
4971;SDS011;2501;51.214;6.768;2023-04-25T05:33:56;24.25;;;6.82;;
4971;SDS011;2501;51.214;6.768;2023-04-25T05:36:25;23.08;;;7.10;;
4971;SDS011;2501;51.214;6.768;2023-04-25T05:38:53;18.40;;;6.35;;
4971;SDS011;2501;51.214;6.768;2023-04-25T05:41:24;16.30;;;6.30;;
4971;SDS011;2501;51.214;6.768;2023-04-25T05:43:53;28.20;;;6.85;;
4971;SDS011;2501;51.214;6.768;2023-04-25T05:46:21;21.60;;;6.68;;
4971;SDS011;2501;51.214;6.768;2023-04-25T05:48:50;21.60;;;6.13;;
4971;SDS011;2501;51.214;6.768;2023-04-25T05:51:18;21.30;;;6.80;;
4971;SDS011;2501;51.214;6.768;2023-04-25T05:53:46;21.10;;;5.78;;
4971;SDS011;2501;51.214;6.768;2023-04-25T05:56:15;17.80;;;5.40;;
4971;SDS011;2501;51.214;6.768;2023-04-25T05:58:46;30.92;;;6.28;;
4971;SDS011;2501;51.214;6.768;2023-04-25T06:01:14;25.10;;;5.72;;
4971;SDS011;2501;51.214;6.768;2023-04-25T06:03:43;20.63;;;5.18;;
4971;SDS011;2501;51.214;6.768;2023-04-25T06:06:12;23.77;;;6.37;;
4971;SDS011;2501;51.214;6.768;2023-04-25T06:08:40;22.88;;;5.82;;
4971;SDS011;2501;51.214;6.768;2023-04-25T06:11:09;23.33;;;6.05;;
4971;SDS011;2501;51.214;6.768;2023-04-25T06:13:37;19.40;;;5.40;;
4971;SDS011;2501;51.214;6.768;2023-04-25T06:16:08;17.75;;;5.15;;
4971;SDS011;2501;51.214;6.768;2023-04-25T06:18:37;18.80;;;5.00;;
4971;SDS011;2501;51.214;6.768;2023-04-25T06:21:05;15.50;;;4.70;;
4971;SDS011;2501;51.214;6.768;2023-04-25T06:23:34;16.38;;;5.68;;
4971;SDS011;2501;51.214;6.768;2023-04-25T06:26:03;16.48;;;4.50;;
4971;SDS011;2501;51.214;6.768;2023-04-25T06:28:31;15.07;;;4.90;;
4971;SDS011;2501;51.214;6.768;2023-04-25T06:31:00;13.70;;;4.78;;
4971;SDS011;2501;51.214;6.768;2023-04-25T06:33:31;17.25;;;5.10;;
4971;SDS011;2501;51.214;6.768;2023-04-25T06:35:59;21.95;;;4.60;;
4971;SDS011;2501;51.214;6.768;2023-04-25T06:38:28;18.23;;;5.00;;
4971;SDS011;2501;51.214;6.768;2023-04-25T06:40:56;17.45;;;4.63;;
4971;SDS011;2501;51.214;6.768;2023-04-25T06:43:25;14.38;;;4.22;;
4971;SDS011;2501;51.214;6.768;2023-04-25T06:45:53;13.15;;;3.80;;
4971;SDS011;2501;51.214;6.768;2023-04-25T06:48:22;12.60;;;3.80;;
4971;SDS011;2501;51.214;6.768;2023-04-25T06:50:53;15.60;;;4.55;;
4971;SDS011;2501;51.214;6.768;2023-04-25T06:53:22;18.63;;;3.90;;
4971;SDS011;2501;51.214;6.768;2023-04-25T06:55:50;20.98;;;5.03;;
4971;SDS011;2501;51.214;6.768;2023-04-25T06:58:19;16.23;;;3.78;;
4971;SDS011;2501;51.214;6.768;2023-04-25T07:00:47;18.50;;;4.38;;
4971;SDS011;2501;51.214;6.768;2023-04-25T07:03:16;17.42;;;4.65;;
4971;SDS011;2501;51.214;6.768;2023-04-25T07:05:44;21.27;;;4.25;;
4971;SDS011;2501;51.214;6.768;2023-04-25T07:08:16;25.05;;;4.22;;
4971;SDS011;2501;51.214;6.768;2023-04-25T07:10:45;11.93;;;4.20;;
4971;SDS011;2501;51.214;6.768;2023-04-25T07:13:14;10.37;;;3.20;;
4971;SDS011;2501;51.214;6.768;2023-04-25T07:15:43;18.38;;;3.50;;
4971;SDS011;2501;51.214;6.768;2023-04-25T07:18:13;13.02;;;3.25;;
4971;SDS011;2501;51.214;6.768;2023-04-25T07:20:41;18.07;;;4.03;;
4971;SDS011;2501;51.214;6.768;2023-04-25T07:23:10;18.10;;;4.30;;
4971;SDS011;2501;51.214;6.768;2023-04-25T07:25:41;10.48;;;4.10;;
4971;SDS011;2501;51.214;6.768;2023-04-25T07:28:09;10.77;;;3.22;;
4971;SDS011;2501;51.214;6.768;2023-04-25T07:30:38;14.18;;;3.95;;
4971;SDS011;2501;51.214;6.768;2023-04-25T07:33:06;12.80;;;3.80;;
4971;SDS011;2501;51.214;6.768;2023-04-25T07:35:35;11.75;;;3.00;;
4971;SDS011;2501;51.214;6.768;2023-04-25T07:38:03;13.50;;;2.63;;
4971;SDS011;2501;51.214;6.768;2023-04-25T07:40:31;13.27;;;3.70;;
4971;SDS011;2501;51.214;6.768;2023-04-25T07:43:03;10.82;;;3.40;;
4971;SDS011;2501;51.214;6.768;2023-04-25T07:45:31;16.63;;;3.22;;
4971;SDS011;2501;51.214;6.768;2023-04-25T07:48:00;18.38;;;4.22;;
4971;SDS011;2501;51.214;6.768;2023-04-25T07:50:28;15.10;;;3.75;;
4971;SDS011;2501;51.214;6.768;2023-04-25T07:52:57;15.05;;;3.42;;
4971;SDS011;2501;51.214;6.768;2023-04-25T07:55:25;21.95;;;4.53;;
4971;SDS011;2501;51.214;6.768;2023-04-25T07:57:54;12.20;;;3.10;;
4971;SDS011;2501;51.214;6.768;2023-04-25T08:00:25;12.02;;;3.53;;
4971;SDS011;2501;51.214;6.768;2023-04-25T08:02:54;14.55;;;3.30;;
4971;SDS011;2501;51.214;6.768;2023-04-25T08:05:22;20.33;;;4.10;;
4971;SDS011;2501;51.214;6.768;2023-04-25T08:07:51;16.00;;;3.70;;
4971;SDS011;2501;51.214;6.768;2023-04-25T08:10:19;17.55;;;3.53;;
4971;SDS011;2501;51.214;6.768;2023-04-25T08:12:48;9.20;;;2.88;;
4971;SDS011;2501;51.214;6.768;2023-04-25T08:15:17;17.17;;;4.87;;
4971;SDS011;2501;51.214;6.768;2023-04-25T08:17:48;12.35;;;3.40;;
4971;SDS011;2501;51.214;6.768;2023-04-25T08:20:16;11.75;;;3.60;;
4971;SDS011;2501;51.214;6.768;2023-04-25T08:22:45;12.45;;;3.47;;
4971;SDS011;2501;51.214;6.768;2023-04-25T08:25:13;13.23;;;3.00;;
4971;SDS011;2501;51.214;6.768;2023-04-25T08:27:42;12.27;;;3.00;;
4971;SDS011;2501;51.214;6.768;2023-04-25T08:30:11;14.90;;;3.33;;
4971;SDS011;2501;51.214;6.768;2023-04-25T08:32:40;11.23;;;2.95;;
4971;SDS011;2501;51.214;6.768;2023-04-25T08:35:13;11.40;;;3.20;;
4971;SDS011;2501;51.214;6.768;2023-04-25T08:37:43;17.67;;;3.40;;
4971;SDS011;2501;51.214;6.768;2023-04-25T08:40:12;13.48;;;4.00;;
4971;SDS011;2501;51.214;6.768;2023-04-25T08:42:43;8.45;;;3.42;;
4971;SDS011;2501;51.214;6.768;2023-04-25T08:45:11;18.27;;;3.28;;
4971;SDS011;2501;51.214;6.768;2023-04-25T08:47:39;7.70;;;3.63;;
4971;SDS011;2501;51.214;6.768;2023-04-25T08:50:12;11.38;;;3.70;;
4971;SDS011;2501;51.214;6.768;2023-04-25T08:52:43;6.47;;;3.15;;
4971;SDS011;2501;51.214;6.768;2023-04-25T08:58:24;14.30;;;3.00;;
4971;SDS011;2501;51.214;6.768;2023-04-25T09:00:53;17.27;;;3.72;;
4971;SDS011;2501;51.214;6.768;2023-04-25T09:03:21;9.60;;;3.00;;
4971;SDS011;2501;51.214;6.768;2023-04-25T09:05:53;14.27;;;3.40;;
4971;SDS011;2501;51.214;6.768;2023-04-25T09:08:23;10.65;;;2.75;;
4971;SDS011;2501;51.214;6.768;2023-04-25T09:10:51;8.40;;;2.20;;
4971;SDS011;2501;51.214;6.768;2023-04-25T09:13:24;7.70;;;2.67;;
4971;SDS011;2501;51.214;6.768;2023-04-25T09:15:54;11.83;;;3.17;;
4971;SDS011;2501;51.214;6.768;2023-04-25T09:18:23;8.60;;;2.60;;
4971;SDS011;2501;51.214;6.768;2023-04-25T09:20:56;14.88;;;2.45;;
4971;SDS011;2501;51.214;6.768;2023-04-25T09:23:38;9.88;;;2.20;;
4971;SDS011;2501;51.214;6.768;2023-04-25T09:26:08;10.27;;;1.95;;
4971;SDS011;2501;51.214;6.768;2023-04-25T09:28:36;10.02;;;2.40;;
4971;SDS011;2501;51.214;6.768;2023-04-25T09:31:06;6.75;;;2.40;;
4971;SDS011;2501;51.214;6.768;2023-04-25T09:33:37;10.20;;;2.38;;
4971;SDS011;2501;51.214;6.768;2023-04-25T09:36:09;9.87;;;2.37;;
4971;SDS011;2501;51.214;6.768;2023-04-25T09:38:39;10.93;;;2.40;;
4971;SDS011;2501;51.214;6.768;2023-04-25T09:41:10;12.60;;;4.13;;
4971;SDS011;2501;51.214;6.768;2023-04-25T09:43:39;6.50;;;2.20;;
4971;SDS011;2501;51.214;6.768;2023-04-25T09:46:08;11.73;;;2.40;;
4971;SDS011;2501;51.214;6.768;2023-04-25T09:48:38;11.15;;;3.08;;
4971;SDS011;2501;51.214;6.768;2023-04-25T09:51:10;6.70;;;1.50;;
4971;SDS011;2501;51.214;6.768;2023-04-25T09:53:39;10.32;;;1.90;;
4971;SDS011;2501;51.214;6.768;2023-04-25T09:56:10;5.10;;;2.25;;
4971;SDS011;2501;51.214;6.768;2023-04-25T09:58:39;4.50;;;2.20;;
4971;SDS011;2501;51.214;6.768;2023-04-25T10:01:09;10.57;;;1.90;;
4971;SDS011;2501;51.214;6.768;2023-04-25T10:03:39;8.05;;;2.10;;
4971;SDS011;2501;51.214;6.768;2023-04-25T10:06:11;8.05;;;2.42;;
4971;SDS011;2501;51.214;6.768;2023-04-25T10:08:46;10.70;;;2.08;;
4971;SDS011;2501;51.214;6.768;2023-04-25T10:11:20;8.40;;;1.90;;
4971;SDS011;2501;51.214;6.768;2023-04-25T10:13:51;6.00;;;1.70;;
4971;SDS011;2501;51.214;6.768;2023-04-25T10:16:21;8.70;;;2.30;;
4971;SDS011;2501;51.214;6.768;2023-04-25T10:18:49;7.28;;;2.53;;
4971;SDS011;2501;51.214;6.768;2023-04-25T10:21:22;9.30;;;2.30;;
4971;SDS011;2501;51.214;6.768;2023-04-25T10:23:52;10.95;;;1.92;;
4971;SDS011;2501;51.214;6.768;2023-04-25T10:26:21;4.95;;;2.20;;
4971;SDS011;2501;51.214;6.768;2023-04-25T10:28:56;4.47;;;2.00;;
4971;SDS011;2501;51.214;6.768;2023-04-25T10:31:29;10.40;;;2.00;;
4971;SDS011;2501;51.214;6.768;2023-04-25T10:33:59;6.78;;;2.05;;
4971;SDS011;2501;51.214;6.768;2023-04-25T10:36:33;6.50;;;1.90;;
4971;SDS011;2501;51.214;6.768;2023-04-25T10:39:03;10.10;;;2.10;;
4971;SDS011;2501;51.214;6.768;2023-04-25T10:41:45;9.02;;;2.33;;
4971;SDS011;2501;51.214;6.768;2023-04-25T10:44:14;8.38;;;2.00;;
4971;SDS011;2501;51.214;6.768;2023-04-25T10:46:45;5.55;;;2.22;;
4971;SDS011;2501;51.214;6.768;2023-04-25T10:49:28;10.70;;;2.10;;
4971;SDS011;2501;51.214;6.768;2023-04-25T10:54:48;4.90;;;2.42;;
4971;SDS011;2501;51.214;6.768;2023-04-25T10:57:32;5.20;;;1.80;;
4971;SDS011;2501;51.214;6.768;2023-04-25T11:00:05;7.20;;;1.40;;
4971;SDS011;2501;51.214;6.768;2023-04-25T11:02:46;4.10;;;1.58;;
4971;SDS011;2501;51.214;6.768;2023-04-25T11:05:20;6.72;;;1.73;;
4971;SDS011;2501;51.214;6.768;2023-04-25T11:07:54;4.55;;;1.80;;
4971;SDS011;2501;51.214;6.768;2023-04-25T11:10:24;7.00;;;1.80;;
4971;SDS011;2501;51.214;6.768;2023-04-25T11:12:53;4.80;;;2.10;;
4971;SDS011;2501;51.214;6.768;2023-04-25T11:15:22;5.70;;;2.08;;
4971;SDS011;2501;51.214;6.768;2023-04-25T11:17:51;6.45;;;1.90;;
4971;SDS011;2501;51.214;6.768;2023-04-25T11:20:20;5.13;;;2.30;;
4971;SDS011;2501;51.214;6.768;2023-04-25T11:22:53;8.60;;;2.20;;
4971;SDS011;2501;51.214;6.768;2023-04-25T11:25:25;6.60;;;1.60;;
4971;SDS011;2501;51.214;6.768;2023-04-25T11:27:54;4.40;;;2.00;;
4971;SDS011;2501;51.214;6.768;2023-04-25T11:30:26;11.50;;;1.90;;
4971;SDS011;2501;51.214;6.768;2023-04-25T11:32:55;11.68;;;2.30;;
4971;SDS011;2501;51.214;6.768;2023-04-25T11:35:24;8.07;;;2.28;;
4971;SDS011;2501;51.214;6.768;2023-04-25T11:37:55;7.00;;;2.15;;
4971;SDS011;2501;51.214;6.768;2023-04-25T11:40:24;10.40;;;1.80;;
4971;SDS011;2501;51.214;6.768;2023-04-25T11:42:53;6.53;;;2.40;;
4971;SDS011;2501;51.214;6.768;2023-04-25T11:45:21;6.90;;;2.15;;
4971;SDS011;2501;51.214;6.768;2023-04-25T11:47:51;8.70;;;2.00;;
4971;SDS011;2501;51.214;6.768;2023-04-25T11:50:20;5.97;;;2.38;;
4971;SDS011;2501;51.214;6.768;2023-04-25T11:52:49;7.00;;;2.20;;
4971;SDS011;2501;51.214;6.768;2023-04-25T11:55:21;5.95;;;2.03;;
4971;SDS011;2501;51.214;6.768;2023-04-25T11:57:49;7.30;;;2.50;;
4971;SDS011;2501;51.214;6.768;2023-04-25T12:00:19;8.75;;;2.17;;
4971;SDS011;2501;51.214;6.768;2023-04-25T12:02:52;9.60;;;2.13;;
4971;SDS011;2501;51.214;6.768;2023-04-25T12:05:23;5.90;;;2.10;;
4971;SDS011;2501;51.214;6.768;2023-04-25T12:07:53;10.23;;;2.65;;
4971;SDS011;2501;51.214;6.768;2023-04-25T12:10:24;8.85;;;2.00;;
4971;SDS011;2501;51.214;6.768;2023-04-25T12:12:53;9.43;;;2.38;;
4971;SDS011;2501;51.214;6.768;2023-04-25T12:15:23;6.60;;;2.00;;
4971;SDS011;2501;51.214;6.768;2023-04-25T12:17:53;8.52;;;2.50;;
4971;SDS011;2501;51.214;6.768;2023-04-25T12:20:23;4.93;;;2.40;;
4971;SDS011;2501;51.214;6.768;2023-04-25T12:22:53;11.10;;;1.80;;
4971;SDS011;2501;51.214;6.768;2023-04-25T12:25:37;6.88;;;2.22;;
4971;SDS011;2501;51.214;6.768;2023-04-25T12:28:10;8.93;;;2.22;;
4971;SDS011;2501;51.214;6.768;2023-04-25T12:30:55;18.77;;;4.32;;
4971;SDS011;2501;51.214;6.768;2023-04-25T12:33:26;11.43;;;3.83;;
4971;SDS011;2501;51.214;6.768;2023-04-25T12:35:56;12.10;;;4.30;;
4971;SDS011;2501;51.214;6.768;2023-04-25T12:38:29;10.68;;;4.30;;
4971;SDS011;2501;51.214;6.768;2023-04-25T12:41:02;14.27;;;4.88;;
4971;SDS011;2501;51.214;6.768;2023-04-25T12:43:30;13.57;;;4.40;;
4971;SDS011;2501;51.214;6.768;2023-04-25T12:45:58;9.87;;;3.63;;
4971;SDS011;2501;51.214;6.768;2023-04-25T12:48:27;11.77;;;3.47;;
4971;SDS011;2501;51.214;6.768;2023-04-25T12:50:56;11.23;;;3.27;;
4971;SDS011;2501;51.214;6.768;2023-04-25T12:53:29;9.50;;;3.53;;
4971;SDS011;2501;51.214;6.768;2023-04-25T12:55:57;12.43;;;3.50;;
4971;SDS011;2501;51.214;6.768;2023-04-25T12:58:28;8.90;;;3.60;;
4971;SDS011;2501;51.214;6.768;2023-04-25T13:00:58;12.05;;;3.42;;
4971;SDS011;2501;51.214;6.768;2023-04-25T13:03:26;9.27;;;3.42;;
4971;SDS011;2501;51.214;6.768;2023-04-25T13:05:55;10.80;;;3.60;;
4971;SDS011;2501;51.214;6.768;2023-04-25T13:08:23;12.10;;;3.70;;
4971;SDS011;2501;51.214;6.768;2023-04-25T13:10:52;9.33;;;2.53;;
4971;SDS011;2501;51.214;6.768;2023-04-25T13:13:20;3.40;;;2.50;;
4971;SDS011;2501;51.214;6.768;2023-04-25T13:15:51;8.43;;;2.75;;
4971;SDS011;2501;51.214;6.768;2023-04-25T13:18:19;8.50;;;2.60;;
4971;SDS011;2501;51.214;6.768;2023-04-25T13:20:51;8.93;;;2.35;;
4971;SDS011;2501;51.214;6.768;2023-04-25T13:23:20;5.85;;;2.00;;
4971;SDS011;2501;51.214;6.768;2023-04-25T13:25:48;4.32;;;2.13;;
4971;SDS011;2501;51.214;6.768;2023-04-25T13:28:17;5.57;;;2.30;;
4971;SDS011;2501;51.214;6.768;2023-04-25T13:30:46;8.50;;;2.40;;
4971;SDS011;2501;51.214;6.768;2023-04-25T13:33:18;4.22;;;2.00;;
4971;SDS011;2501;51.214;6.768;2023-04-25T13:35:46;8.18;;;2.33;;
4971;SDS011;2501;51.214;6.768;2023-04-25T13:38:19;5.43;;;2.35;;
4971;SDS011;2501;51.214;6.768;2023-04-25T13:40:49;9.20;;;2.80;;
4971;SDS011;2501;51.214;6.768;2023-04-25T13:43:18;3.22;;;1.65;;
4971;SDS011;2501;51.214;6.768;2023-04-25T13:45:48;4.78;;;2.15;;
4971;SDS011;2501;51.214;6.768;2023-04-25T13:48:19;5.00;;;2.40;;
4971;SDS011;2501;51.214;6.768;2023-04-25T13:50:47;6.50;;;1.80;;
4971;SDS011;2501;51.214;6.768;2023-04-25T13:53:16;3.35;;;1.27;;
4971;SDS011;2501;51.214;6.768;2023-04-25T13:55:44;5.18;;;1.63;;
4971;SDS011;2501;51.214;6.768;2023-04-25T13:58:13;7.38;;;1.80;;
4971;SDS011;2501;51.214;6.768;2023-04-25T14:00:42;3.08;;;1.55;;
4971;SDS011;2501;51.214;6.768;2023-04-25T14:03:11;4.60;;;1.30;;
4971;SDS011;2501;51.214;6.768;2023-04-25T14:05:42;8.45;;;1.70;;
4971;SDS011;2501;51.214;6.768;2023-04-25T14:08:11;4.03;;;1.70;;
4971;SDS011;2501;51.214;6.768;2023-04-25T14:10:39;3.60;;;1.88;;
4971;SDS011;2501;51.214;6.768;2023-04-25T14:13:08;4.43;;;1.90;;
4971;SDS011;2501;51.214;6.768;2023-04-25T14:15:36;5.45;;;2.00;;
4971;SDS011;2501;51.214;6.768;2023-04-25T14:18:05;5.75;;;2.33;;
4971;SDS011;2501;51.214;6.768;2023-04-25T14:20:33;5.73;;;2.67;;
4971;SDS011;2501;51.214;6.768;2023-04-25T14:23:04;5.32;;;2.00;;
4971;SDS011;2501;51.214;6.768;2023-04-25T14:25:33;5.20;;;1.90;;
4971;SDS011;2501;51.214;6.768;2023-04-25T14:28:01;9.25;;;2.60;;
4971;SDS011;2501;51.214;6.768;2023-04-25T14:30:30;6.93;;;1.90;;
4971;SDS011;2501;51.214;6.768;2023-04-25T14:32:59;9.52;;;2.80;;
4971;SDS011;2501;51.214;6.768;2023-04-25T14:35:27;4.47;;;1.75;;
4971;SDS011;2501;51.214;6.768;2023-04-25T14:37:56;8.25;;;2.72;;
4971;SDS011;2501;51.214;6.768;2023-04-25T14:40:27;8.80;;;2.57;;
4971;SDS011;2501;51.214;6.768;2023-04-25T14:42:56;5.63;;;2.42;;
4971;SDS011;2501;51.214;6.768;2023-04-25T14:45:24;7.15;;;2.45;;
4971;SDS011;2501;51.214;6.768;2023-04-25T14:47:53;9.35;;;2.63;;
4971;SDS011;2501;51.214;6.768;2023-04-25T14:50:21;3.60;;;2.10;;
4971;SDS011;2501;51.214;6.768;2023-04-25T14:52:50;4.75;;;2.70;;
4971;SDS011;2501;51.214;6.768;2023-04-25T14:55:18;6.70;;;2.45;;
4971;SDS011;2501;51.214;6.768;2023-04-25T14:57:49;6.47;;;2.95;;
4971;SDS011;2501;51.214;6.768;2023-04-25T15:00:18;4.30;;;1.90;;
4971;SDS011;2501;51.214;6.768;2023-04-25T15:02:47;4.60;;;1.77;;
4971;SDS011;2501;51.214;6.768;2023-04-25T15:05:16;5.57;;;1.90;;
4971;SDS011;2501;51.214;6.768;2023-04-25T15:07:45;5.03;;;2.00;;
4971;SDS011;2501;51.214;6.768;2023-04-25T15:10:14;7.55;;;1.98;;
4971;SDS011;2501;51.214;6.768;2023-04-25T15:12:42;4.13;;;1.90;;
4971;SDS011;2501;51.214;6.768;2023-04-25T15:15:13;6.97;;;1.95;;
4971;SDS011;2501;51.214;6.768;2023-04-25T15:17:42;3.08;;;1.80;;
4971;SDS011;2501;51.214;6.768;2023-04-25T15:20:12;4.88;;;1.63;;
4971;SDS011;2501;51.214;6.768;2023-04-25T15:22:41;3.30;;;1.52;;
4971;SDS011;2501;51.214;6.768;2023-04-25T15:25:13;3.80;;;1.10;;